Flight Information

DEPARTURE
EL PASO, TX
Elevation:
3961
Runways:
8R/26L - 9025x150 - ASPH-CONC-F
4/22 - 12020x150 - ASPH-CONC-F
8L/26R - 5499x75 - CONC-G
Active PE Departure:
4 - 8L - 8R
Current PE ATIS:
P
Altimeter:
29.86
Remarks:
R N P APPROACHES AVAILABLE UPON REQUEST.
ATIS:
120.0 915-772-9412
Clearance Delivery:
125
Ground:
121.9
Tower:
EL PASO TOWER 118.3
DESTINATION
,
Elevation:
TPA:
1000 (est.)


6231.6 NM81° True-11° Var70° HDG

Flight Plan:
(click to file on line)

1. Type
2. Aircraft Identification
3. Aircraft Type / Special Equipment
4. True Airspeed
kts
5. Departure Airport
(ICAO code)
6. Arriving Airport
(ICAO code)
7. Cruising Altitude
ft
8. Alternate Airport
(ICAO code)
9. Route of Flight
10. Remarks


00:00:00 Departure ATIS: Destination ATIS:

Clearance Limit:
Route:
Altitude: Expect in minutes
Frequency:
Transponder: (7500 Hijack / 7600 Lost Comms / 7700 Emergency)


KELP 190151Z 12006KT 10SM FEW120 SCT150 16/M12 A2986 RMK AO2 SLP085 T01561117 $
Time: 2021-01-19T01:51:00Z
1611022827
Winds: 120 @ 6 kts
Visibility: 10.0 sm
Clouds (AGL): FEW 12000
SCT 15000
Temperature: 15.6 C
Dew Point: -11.7 C
Pressure: 29.861221 in Hgbr


Notes:

Data extracted from FAA Digital Chart Supplement. Effective: 0901Z Thursday, Dec 31, 2020 to 0901Z Thursday, Jan 28, 2021
Current ATIS data is provided courtisy of PilotEdge.